createdAt,value
2023-04-11T00:00:09.741Z,980.1
2023-04-11T00:02:11.532Z,980.1
2023-04-11T00:06:13.335Z,980.1
2023-04-11T00:08:14.432Z,979.9
2023-04-11T00:12:17.930Z,979.7
2023-04-11T00:16:20.603Z,979.9
2023-04-11T00:18:21.652Z,980
2023-04-11T00:22:24.814Z,979.9
2023-04-11T00:24:26.190Z,979.8
2023-04-11T00:28:28.917Z,979.8
2023-04-11T00:32:31.216Z,980
2023-04-11T00:34:32.447Z,980.1
2023-04-11T00:38:35.194Z,980.3
2023-04-11T00:42:37.518Z,980.2
2023-04-11T00:44:38.984Z,980.4
2023-04-11T00:48:41.680Z,980.4
2023-04-11T00:50:42.780Z,980.3
2023-04-11T00:52:44.614Z,980.5
2023-04-11T00:54:46.116Z,980.3
2023-04-11T00:58:49.260Z,980.3
2023-04-11T01:00:50.539Z,980.3
2023-04-11T01:02:52.658Z,980.1
2023-04-11T01:04:53.245Z,980.2
2023-04-11T01:06:54.634Z,980.2
2023-04-11T01:10:56.719Z,980.5
2023-04-11T01:12:58.546Z,980.6
2023-04-11T01:14:59.766Z,980.5
2023-04-11T01:17:01.405Z,980.3
2023-04-11T01:21:04.114Z,980.4
2023-04-11T01:23:05.422Z,980.3
2023-04-11T01:27:08.164Z,980.3
2023-04-11T01:31:11.243Z,980.2
2023-04-11T01:33:12.424Z,980.1
2023-04-11T01:37:15.128Z,980
2023-04-11T01:41:18.001Z,980
2023-04-11T01:43:19.593Z,979.9
2023-04-11T01:47:22.164Z,979.9
2023-04-11T01:49:23.040Z,980
2023-04-11T01:53:26.651Z,980
2023-04-11T01:57:29.582Z,980.2
2023-04-11T01:59:30.864Z,980.1
2023-04-11T02:03:34.269Z,980.1
2023-04-11T02:05:35.457Z,980
2023-04-11T02:09:38.005Z,980
2023-04-11T02:13:41.241Z,980.2
2023-04-11T02:15:42.387Z,980.2
2023-04-11T02:19:44.480Z,980.3
2023-04-11T02:23:46.992Z,980.3
2023-04-11T02:25:48.389Z,980.3
2023-04-11T02:29:51.589Z,980
2023-04-11T02:31:53.124Z,979.8
2023-04-11T02:35:55.943Z,979.9
2023-04-11T02:39:58.468Z,979.9
2023-04-11T02:41:59.690Z,979.8
2023-04-11T02:46:12.442Z,980
2023-04-11T02:48:03.972Z,980.2
2023-04-11T02:52:06.937Z,980.1
2023-04-11T02:56:09.994Z,980.2
2023-04-11T02:58:11.397Z,980.1
2023-04-11T03:02:14.002Z,980.1
2023-04-11T03:06:17.292Z,980.2
2023-04-11T03:08:19.220Z,980.2
2023-04-11T03:12:21.861Z,980.2
2023-04-11T03:14:23.209Z,980.3
2023-04-11T03:16:24.515Z,980.2
2023-04-11T03:18:26.253Z,980.1
2023-04-11T03:22:29.621Z,980.1
2023-04-11T03:24:30.637Z,980.1
2023-04-11T03:28:32.655Z,980.3
2023-04-11T03:30:34.503Z,980.2
2023-04-11T03:34:37.457Z,980.2
2023-04-11T03:38:39.928Z,980.4
2023-04-11T03:40:41.222Z,980.6
2023-04-11T03:44:43.959Z,980.6
2023-04-11T03:50:48.579Z,980.6
2023-04-11T03:54:51.929Z,980.5
2023-04-11T03:56:52.890Z,980.6
2023-04-11T04:00:55.633Z,980.7
2023-04-11T04:07:00.309Z,980.5
2023-04-11T04:11:02.929Z,980.7
2023-04-11T04:13:04.816Z,980.7
2023-04-11T04:17:07.391Z,980.7
2023-04-11T04:21:09.799Z,980.9
2023-04-11T04:23:10.805Z,981
2023-04-11T04:27:12.876Z,981
2023-04-11T04:29:14.145Z,981
2023-04-11T04:31:15.954Z,981
2023-04-11T04:33:17.530Z,981.1
2023-04-11T04:37:20.709Z,981
2023-04-11T04:39:22.410Z,981
2023-04-11T04:41:23.606Z,980.9
2023-04-11T04:43:25.321Z,981
2023-04-11T04:45:27.124Z,981.1
2023-04-11T04:49:29.017Z,981.2
2023-04-11T04:53:31.749Z,981.3
2023-04-11T04:55:33.442Z,981.3
2023-04-11T04:59:35.470Z,981.2
2023-04-11T05:01:36.843Z,981.2
2023-04-11T05:05:39.418Z,981.2
2023-04-11T05:09:42.755Z,981.3
2023-04-11T05:11:44.176Z,981.2
2023-04-11T05:15:46.105Z,981.3
2023-04-11T05:19:49.099Z,981.4
2023-04-11T05:21:50.136Z,981.5
2023-04-11T05:25:53.312Z,981.6
2023-04-11T05:27:54.627Z,981.5
2023-04-11T05:31:56.771Z,981.5
2023-04-11T05:36:00.051Z,981.5
2023-04-11T05:38:01.787Z,981.4
2023-04-11T05:42:04.791Z,981.4
2023-04-11T05:46:50.768Z,981.7
2023-04-11T05:48:52.485Z,981.7
2023-04-11T05:52:55.029Z,981.4
2023-04-11T05:56:57.648Z,981.4
2023-04-11T05:58:59.559Z,981.6
2023-04-11T06:03:03.123Z,981.5
2023-04-11T06:05:05.013Z,981.4
2023-04-11T06:09:08.284Z,981.4
2023-04-11T06:13:10.985Z,981.4
2023-04-11T06:15:12.786Z,981.5
2023-04-11T06:19:15.535Z,981.5
2023-04-11T06:21:16.992Z,981.5
2023-04-11T06:25:19.676Z,981.5
2023-04-11T06:29:22.362Z,981.6
2023-04-11T06:31:23.679Z,981.6
2023-04-11T06:35:26.598Z,981.6
2023-04-11T06:39:29.632Z,981.8
2023-04-11T06:41:31.544Z,981.8
2023-04-11T06:45:35.123Z,981.8
2023-04-11T06:47:36.653Z,981.9
2023-04-11T06:51:40.115Z,981.9
2023-04-11T06:55:43.002Z,981.9
2023-04-11T06:57:53.315Z,981.8
2023-04-11T07:01:47.612Z,981.9
2023-04-11T07:03:48.654Z,981.9
2023-04-11T07:07:50.942Z,982.1
2023-04-11T07:11:53.581Z,982.1
2023-04-11T07:13:55.296Z,982.2
2023-04-11T07:17:57.865Z,982.1
2023-04-11T07:24:01.181Z,982.1
2023-04-11T07:28:04.499Z,982.1
2023-04-11T07:30:06.250Z,982.1
2023-04-11T07:34:09.735Z,982.2
2023-04-11T07:38:12.086Z,982.1
2023-04-11T07:40:13.333Z,982.1
2023-04-11T07:44:16.285Z,982.1
2023-04-11T07:46:17.639Z,982.2
2023-04-11T07:50:20.456Z,982.2
2023-04-11T07:54:23.586Z,982.2
2023-04-11T07:56:24.785Z,982.1
2023-04-11T08:00:27.658Z,982.2
2023-04-11T08:02:28.996Z,982.2
2023-04-11T08:06:32.747Z,982.1
2023-04-11T08:10:35.915Z,982.1
2023-04-11T08:12:37.836Z,982
2023-04-11T08:16:40.765Z,982.2
2023-04-11T08:20:43.593Z,982.1
2023-04-11T08:22:44.526Z,982.2
2023-04-11T08:26:47.088Z,982.3
2023-04-11T08:28:48.297Z,982.4
2023-04-11T08:32:51.117Z,982.3
2023-04-11T08:36:53.911Z,982.4
2023-04-11T08:38:55.112Z,982.5
2023-04-11T08:42:59.030Z,982.4
2023-04-11T08:45:00.677Z,982.3
2023-04-11T08:49:03.381Z,982.4
2023-04-11T08:53:06.806Z,982.5
2023-04-11T08:55:08.406Z,982.3
2023-04-11T08:59:11.675Z,982.4
2023-04-11T09:03:14.568Z,982.6
2023-04-11T09:05:15.453Z,982.5
2023-04-11T09:09:18.371Z,982.6
2023-04-11T09:11:20.221Z,982.5
2023-04-11T09:15:23.708Z,982.6
2023-04-11T09:19:26.269Z,982.6
2023-04-11T09:21:27.301Z,982.5
2023-04-11T09:25:29.966Z,982.5
2023-04-11T09:27:32.184Z,982.4
2023-04-11T09:31:34.667Z,982.5
2023-04-11T09:35:37.027Z,982.4
2023-04-11T09:37:38.369Z,982.3
2023-04-11T09:41:40.230Z,982.3
2023-04-11T09:45:52.022Z,982.5
2023-04-11T09:47:44.805Z,982.4
2023-04-11T09:51:47.410Z,982.4
2023-04-11T09:53:49.122Z,982.4
2023-04-11T09:55:50.872Z,982.4
2023-04-11T09:57:52.071Z,982.5
2023-04-11T10:01:54.332Z,982.5
2023-04-11T10:03:56.561Z,982.4
2023-04-11T10:05:57.287Z,982.4
2023-04-11T10:07:58.415Z,982.5
2023-04-11T10:09:59.853Z,982.4
2023-04-11T10:14:02.317Z,982.4
2023-04-11T10:16:04.368Z,982.5
2023-04-11T10:18:05.460Z,982.5
2023-04-11T10:20:06.417Z,982.5
2023-04-11T10:24:09.323Z,982.7
2023-04-11T10:26:10.478Z,982.6
2023-04-11T10:30:13.368Z,982.6
2023-04-11T10:34:16.688Z,982.7
2023-04-11T10:36:18.533Z,982.7
2023-04-11T10:40:20.526Z,982.6
2023-04-11T10:44:22.761Z,982.6
2023-04-11T10:46:24.295Z,982.3
2023-04-11T10:50:26.497Z,982.4
2023-04-11T10:52:27.965Z,982.5
2023-04-11T10:56:31.300Z,982.4
2023-04-11T11:00:35.136Z,982.5
2023-04-11T11:02:35.906Z,982.5
2023-04-11T11:06:46.598Z,982.6
2023-04-11T11:12:42.273Z,982.8
2023-04-11T11:16:45.119Z,982.9
2023-04-11T11:18:46.047Z,983.5
2023-04-11T11:22:48.616Z,983.7
2023-04-11T11:26:51.941Z,983.6
2023-04-11T11:28:53.151Z,983.6
2023-04-11T11:32:56.457Z,983.6
2023-04-11T11:35:06.556Z,983.5
2023-04-11T11:39:00.444Z,983.4
2023-04-11T11:41:02.450Z,983.3
2023-04-11T11:43:04.835Z,983.3
2023-04-11T11:45:06.158Z,983.3
2023-04-11T11:49:09.287Z,983.2
2023-04-11T11:51:10.509Z,983.2
2023-04-11T11:55:14.094Z,983.3
2023-04-11T11:59:17.315Z,983.3
2023-04-11T12:01:18.667Z,983.2
2023-04-11T12:05:21.343Z,983.1
2023-04-11T12:09:24.295Z,983
2023-04-11T12:11:25.536Z,983
2023-04-11T12:15:28.779Z,983.1
2023-04-11T12:17:30.200Z,983.2
2023-04-11T12:21:33.598Z,983.1
2023-04-11T12:25:36.824Z,983.1
2023-04-11T12:27:38.656Z,982.9
2023-04-11T12:32:25.416Z,983
2023-04-11T12:36:28.308Z,983.1
2023-04-11T12:38:29.853Z,983.1
2023-04-11T12:46:44.694Z,983.3
2023-04-11T12:48:37.240Z,983.2
2023-04-11T12:52:39.910Z,983.1
2023-04-11T12:54:41.070Z,983.2
2023-04-11T12:58:44.137Z,983.2
2023-04-11T13:02:47.533Z,983.2
2023-04-11T13:04:49.322Z,983.1
2023-04-11T13:08:51.295Z,983
2023-04-11T13:10:54.095Z,983
2023-04-11T13:14:55.717Z,983.1
2023-04-11T13:18:58.670Z,982.9
2023-04-11T13:20:59.487Z,983
2023-04-11T13:25:02.363Z,983.1
2023-04-11T13:27:03.700Z,983.2
2023-04-11T13:31:06.724Z,983.4
2023-04-11T13:35:10.156Z,983.6
2023-04-11T13:37:11.671Z,983.6
2023-04-11T13:41:15.054Z,983.4
2023-04-11T13:45:17.447Z,983.4
2023-04-11T13:47:18.756Z,983.6
2023-04-11T13:51:22.523Z,983.4
2023-04-11T13:53:24.244Z,983.4
2023-04-11T13:57:27.124Z,983.4
2023-04-11T14:01:30.652Z,983.3
2023-04-11T14:03:31.704Z,983.3
2023-04-11T14:07:35.731Z,983.3
2023-04-11T14:09:36.720Z,983.3
2023-04-11T14:13:39.264Z,983.3
2023-04-11T14:17:41.779Z,983.2
2023-04-11T14:19:43.149Z,983.1
2023-04-11T14:23:45.342Z,983.1
2023-04-11T14:27:48.292Z,983
2023-04-11T14:29:49.604Z,983.1
2023-04-11T14:33:53.094Z,983
2023-04-11T14:35:54.257Z,982.9
2023-04-11T14:39:56.630Z,982.9
2023-04-11T14:43:59.390Z,982.9
2023-04-11T14:46:01.042Z,982.8
2023-04-11T14:50:04.725Z,982.8
2023-04-11T14:52:06.517Z,982.7
2023-04-11T14:56:09.220Z,982.9
2023-04-11T15:00:11.766Z,982.9
2023-04-11T15:02:13.258Z,982.9
2023-04-11T15:06:16.124Z,982.8
2023-04-11T15:10:18.581Z,982.7
2023-04-11T15:12:19.537Z,982.8
2023-04-11T15:16:21.747Z,982.8
2023-04-11T15:18:23.573Z,982.8
2023-04-11T15:22:26.253Z,982.8
2023-04-11T15:26:29.399Z,982.7
2023-04-11T15:28:30.672Z,982.7
2023-04-11T15:32:33.374Z,982.6
2023-04-11T15:34:34.444Z,982.6
2023-04-11T15:38:36.678Z,982.6
2023-04-11T15:42:40.212Z,982.6
2023-04-11T15:44:41.170Z,982.5
2023-04-11T15:48:44.097Z,982.6
2023-04-11T15:54:48.443Z,982.7
2023-04-11T15:58:51.682Z,982.7
2023-04-11T16:00:53.505Z,982.6
2023-04-11T16:02:55.322Z,982.7
2023-04-11T16:04:56.335Z,982.5
2023-04-11T16:08:58.872Z,982.7
2023-04-11T16:11:00.479Z,982.8
2023-04-11T16:13:01.915Z,982.8
2023-04-11T16:15:03.022Z,982.7
2023-04-11T16:17:04.346Z,982.8
2023-04-11T16:21:06.977Z,982.8
2023-04-11T16:25:09.454Z,982.8
2023-04-11T16:27:10.434Z,982.8
2023-04-11T16:31:12.525Z,982.8
2023-04-11T16:33:13.661Z,982.7
2023-04-11T16:37:16.606Z,982.6
2023-04-11T16:41:19.620Z,982.6
2023-04-11T16:43:20.497Z,982.7
2023-04-11T16:47:22.903Z,982.6
2023-04-11T16:51:25.407Z,982.8
2023-04-11T16:53:27.202Z,982.7
2023-04-11T16:57:29.774Z,982.7
2023-04-11T16:59:31.145Z,982.6
2023-04-11T17:03:33.777Z,982.7
2023-04-11T17:07:36.566Z,982.8
2023-04-11T17:09:37.931Z,982.8
2023-04-11T17:13:40.736Z,982.6
2023-04-11T17:15:42.205Z,982.6
2023-04-11T17:19:44.699Z,982.6
2023-04-11T17:23:47.745Z,982.5
2023-04-11T17:25:49.028Z,982.6
2023-04-11T17:29:51.832Z,982.5
2023-04-11T17:33:55.294Z,982.5
2023-04-11T17:35:56.054Z,982.6
2023-04-11T17:39:58.809Z,982.7
2023-04-11T17:42:00.588Z,982.7
2023-04-11T17:44:02.210Z,982.7
2023-04-11T17:46:03.736Z,982.8
2023-04-11T17:50:06.123Z,982.8
2023-04-11T17:52:08.028Z,982.8
2023-04-11T17:54:09.506Z,982.7
2023-04-11T17:56:11.363Z,982.7
2023-04-11T17:58:12.796Z,982.8
2023-04-11T18:02:15.125Z,982.8
2023-04-11T18:06:17.630Z,982.8
2023-04-11T18:08:18.796Z,982.7
2023-04-11T18:12:21.785Z,982.9
2023-04-11T18:14:23.468Z,982.9
2023-04-11T18:18:26.540Z,982.9
2023-04-11T18:22:29.073Z,983
2023-04-11T18:24:30.666Z,983
2023-04-11T18:28:33.452Z,983
2023-04-11T18:32:39.882Z,983
2023-04-11T18:34:37.792Z,983.1
2023-04-11T18:38:40.965Z,983.2
2023-04-11T18:40:42.193Z,983.2
2023-04-11T18:44:45.037Z,983
2023-04-11T18:48:47.421Z,983.1
2023-04-11T18:50:49.177Z,983
2023-04-11T18:54:51.673Z,983
2023-04-11T18:56:54.242Z,983.2
2023-04-11T19:00:55.828Z,983.1
2023-04-11T19:04:59.583Z,983
2023-04-11T19:07:00.570Z,983
2023-04-11T19:11:03.715Z,983.1
2023-04-11T19:15:50.444Z,983.1
2023-04-11T19:17:52.141Z,983.1
2023-04-11T19:21:55.004Z,983
2023-04-11T19:25:57.196Z,983
2023-04-11T19:27:58.652Z,983
2023-04-11T19:32:01.602Z,983
2023-04-11T19:34:02.604Z,983
2023-04-11T19:38:05.608Z,982.9
2023-04-11T19:42:09.034Z,982.8
2023-04-11T19:44:10.279Z,982.8
2023-04-11T19:48:12.973Z,982.8
2023-04-11T19:52:16.289Z,982.7
2023-04-11T19:54:17.294Z,982.6
2023-04-11T19:58:19.913Z,982.6
2023-04-11T20:00:21.334Z,982.6
2023-04-11T20:02:22.884Z,982.5
2023-04-11T20:04:24.623Z,982.5
2023-04-11T20:08:27.655Z,982.4
2023-04-11T20:10:28.694Z,982.5
2023-04-11T20:12:30.674Z,982.5
2023-04-11T20:14:32.548Z,982.5
2023-04-11T20:16:34.279Z,982.5
2023-04-11T20:20:37.877Z,982.4
2023-04-11T20:24:40.477Z,982.4
2023-04-11T20:26:41.869Z,982.3
2023-04-11T20:30:44.723Z,982.3
2023-04-11T20:36:49.017Z,982.3
2023-04-11T20:40:52.539Z,982.4
2023-04-11T20:42:53.922Z,982.3
2023-04-11T20:46:57.058Z,982.3
2023-04-11T20:50:59.932Z,982.2
2023-04-11T20:53:01.296Z,982.1
2023-04-11T20:57:04.257Z,982.1
2023-04-11T20:59:06.082Z,982.1
2023-04-11T21:03:09.183Z,982.1
2023-04-11T21:05:10.998Z,982.1
2023-04-11T21:07:12.879Z,982.1
2023-04-11T21:09:14.076Z,982.1
2023-04-11T21:13:16.777Z,982
2023-04-11T21:15:17.949Z,982
2023-04-11T21:19:20.988Z,981.9
2023-04-11T21:23:23.777Z,982
2023-04-11T21:25:25.646Z,981.8
2023-04-11T21:29:28.354Z,981.7
2023-04-11T21:33:30.578Z,981.7
2023-04-11T21:35:31.881Z,981.7
2023-04-11T21:39:34.710Z,981.7
2023-04-11T21:41:36.197Z,981.7
2023-04-11T21:45:38.932Z,981.8
2023-04-11T21:51:43.851Z,981.7
2023-04-11T21:55:46.847Z,981.6
2023-04-11T21:57:48.055Z,981.6
2023-04-11T22:01:51.447Z,981.6
2023-04-11T22:05:54.639Z,981.5
2023-04-11T22:07:55.649Z,981.4
2023-04-11T22:11:58.949Z,981.3
2023-04-11T22:14:00.645Z,981.2
2023-04-11T22:18:04.040Z,981.2
2023-04-11T22:22:06.795Z,981.2
2023-04-11T22:24:07.806Z,981.2
2023-04-11T22:28:11.018Z,981.1
2023-04-11T22:30:12.670Z,981
2023-04-11T22:34:15.629Z,981
2023-04-11T22:38:18.459Z,981.1
2023-04-11T22:40:19.478Z,981
2023-04-11T22:44:23.044Z,980.9
2023-04-11T22:48:26.099Z,980.9
2023-04-11T22:50:27.165Z,980.8
2023-04-11T22:54:30.754Z,980.7
2023-04-11T22:56:32.232Z,980.7
2023-04-11T23:00:34.854Z,980.5
2023-04-11T23:04:37.030Z,980.6
2023-04-11T23:06:38.864Z,980.5
2023-04-11T23:10:41.688Z,980.4
2023-04-11T23:12:43.598Z,980.5
2023-04-11T23:16:46.706Z,980.5
2023-04-11T23:20:49.764Z,980.4
2023-04-11T23:22:51.530Z,980.3
2023-04-11T23:26:54.031Z,980.3
2023-04-11T23:30:57.179Z,980.3
2023-04-11T23:32:59.023Z,980.3
2023-04-11T23:37:01.981Z,980.2
2023-04-11T23:39:02.991Z,980.1
2023-04-11T23:43:05.814Z,980
2023-04-11T23:47:08.911Z,980
2023-04-11T23:49:10.477Z,980.1
2023-04-11T23:53:13.804Z,980
2023-04-11T23:55:15.236Z,979.8
2023-04-11T23:59:17.622Z,979.8
